createdAt,value
2022-12-09T00:00:36.105Z,60.77
2022-12-09T00:03:03.016Z,60.82
2022-12-09T00:05:29.973Z,60.83
2022-12-09T00:07:56.586Z,60.85
2022-12-09T00:10:23.336Z,60.88
2022-12-09T00:12:54.059Z,60.87
2022-12-09T00:15:20.918Z,60.84
2022-12-09T00:17:47.582Z,60.97
2022-12-09T00:20:14.198Z,60.86
2022-12-09T00:22:40.835Z,60.82
2022-12-09T00:25:07.967Z,60.85
2022-12-09T00:27:34.472Z,60.81
2022-12-09T00:30:01.019Z,60.70
2022-12-09T00:32:28.283Z,60.78
2022-12-09T00:34:55.020Z,60.87
2022-12-09T00:37:21.554Z,60.91
2022-12-09T00:39:48.383Z,60.63
2022-12-09T00:42:14.992Z,60.78
2022-12-09T00:44:41.803Z,60.61
2022-12-09T00:47:08.618Z,61.01
2022-12-09T00:49:35.176Z,60.95
2022-12-09T00:52:01.731Z,61.02
2022-12-09T00:54:28.357Z,61.05
2022-12-09T00:56:57.156Z,61.10
2022-12-09T00:59:23.651Z,61.12
2022-12-09T01:01:50.277Z,61.31
2022-12-09T01:04:19.564Z,61.12
2022-12-09T01:06:46.121Z,61.06
2022-12-09T01:09:14.045Z,61.03
2022-12-09T01:11:41.106Z,60.93
2022-12-09T01:14:07.886Z,60.90
2022-12-09T01:16:35.284Z,60.89
2022-12-09T01:19:05.846Z,60.94
2022-12-09T01:21:33.336Z,60.99
2022-12-09T01:24:00.228Z,60.92
2022-12-09T01:26:27.542Z,60.90
2022-12-09T01:28:55.576Z,61.04
2022-12-09T01:31:24.185Z,61.06
2022-12-09T01:33:51.789Z,60.93
2022-12-09T01:36:25.670Z,61.00
2022-12-09T01:38:52.636Z,61.02
2022-12-09T01:41:20.708Z,61.05
2022-12-09T01:44:13.132Z,61.16
2022-12-09T01:46:40.527Z,61.12
2022-12-09T01:49:09.389Z,61.20
2022-12-09T01:51:36.802Z,61.13
2022-12-09T01:54:03.976Z,61.36
2022-12-09T01:56:34.209Z,61.16
2022-12-09T01:59:09.273Z,61.33
2022-12-09T02:01:36.352Z,61.31
2022-12-09T02:04:04.128Z,61.17
2022-12-09T02:06:31.039Z,61.14
2022-12-09T02:08:59.211Z,61.08
2022-12-09T02:11:38.705Z,61.29
2022-12-09T02:14:16.646Z,61.01
2022-12-09T02:17:13.238Z,61.14
2022-12-09T02:20:01.510Z,61.08
2022-12-09T02:22:38.477Z,61.07
2022-12-09T02:25:14.120Z,61.11
2022-12-09T02:28:04.952Z,61.07
2022-12-09T02:30:42.131Z,61.09
2022-12-09T02:33:26.581Z,61.14
2022-12-09T02:36:05.696Z,61.03
2022-12-09T02:38:33.391Z,61.01
2022-12-09T02:41:07.674Z,61.16
2022-12-09T02:43:46.658Z,61.23
2022-12-09T02:46:20.056Z,61.29
2022-12-09T02:48:54.353Z,61.19
2022-12-09T02:51:23.492Z,61.29
2022-12-09T02:53:56.871Z,60.97
2022-12-09T02:56:24.647Z,61.21
2022-12-09T02:58:51.586Z,61.11
2022-12-09T03:01:32.364Z,61.13
2022-12-09T03:03:59.462Z,61.18
2022-12-09T03:06:31.470Z,61.26
2022-12-09T03:09:07.988Z,61.05
2022-12-09T03:11:35.558Z,61.16
2022-12-09T03:14:09.874Z,61.00
2022-12-09T03:16:46.913Z,61.23
2022-12-09T03:19:29.150Z,61.06
2022-12-09T03:22:03.985Z,61.14
2022-12-09T03:24:38.403Z,61.21
2022-12-09T03:27:09.833Z,61.25
2022-12-09T03:29:39.933Z,61.13
2022-12-09T03:32:09.147Z,61.24
2022-12-09T03:34:42.415Z,61.20
2022-12-09T03:37:11.725Z,61.19
2022-12-09T03:39:40.786Z,61.17
2022-12-09T03:42:18.432Z,61.17
2022-12-09T03:44:50.551Z,61.20
2022-12-09T03:47:17.787Z,61.27
2022-12-09T03:49:44.726Z,61.26
2022-12-09T03:52:15.574Z,61.31
2022-12-09T03:54:48.071Z,61.26
2022-12-09T03:57:19.287Z,61.38
2022-12-09T03:59:53.566Z,61.33
2022-12-09T04:02:20.885Z,61.30
2022-12-09T04:04:47.734Z,61.35
2022-12-09T04:07:14.427Z,61.41
2022-12-09T04:09:41.426Z,61.36
2022-12-09T04:12:08.415Z,61.38
2022-12-09T04:14:35.370Z,61.39
2022-12-09T04:17:02.524Z,61.41
2022-12-09T04:19:29.611Z,61.35
2022-12-09T04:21:56.182Z,61.44
2022-12-09T04:24:23.055Z,61.35
2022-12-09T04:26:49.645Z,61.44
2022-12-09T04:29:16.138Z,61.37
2022-12-09T04:31:43.044Z,61.37
2022-12-09T04:34:10.270Z,61.35
2022-12-09T04:36:38.124Z,61.41
2022-12-09T04:39:05.348Z,61.40
2022-12-09T04:41:32.064Z,61.46
2022-12-09T04:43:58.613Z,61.49
2022-12-09T04:46:25.377Z,61.60
2022-12-09T04:48:52.781Z,61.52
2022-12-09T04:51:19.535Z,61.59
2022-12-09T04:53:46.403Z,61.70
2022-12-09T04:56:19.297Z,61.65
2022-12-09T04:58:46.802Z,61.74
2022-12-09T05:01:18.191Z,61.65
2022-12-09T05:03:51.918Z,61.80
2022-12-09T05:06:20.037Z,61.64
2022-12-09T05:08:47.928Z,61.75
2022-12-09T05:11:15.568Z,61.70
2022-12-09T05:13:42.541Z,61.66
2022-12-09T05:16:15.877Z,61.65
2022-12-09T05:18:44.839Z,61.62
2022-12-09T05:21:15.129Z,61.49
2022-12-09T05:23:42.420Z,61.51
2022-12-09T05:26:12.466Z,61.54
2022-12-09T05:28:39.565Z,61.40
2022-12-09T05:31:10.061Z,61.46
2022-12-09T05:33:37.000Z,61.55
2022-12-09T05:36:04.281Z,61.47
2022-12-09T05:38:31.217Z,61.52
2022-12-09T05:41:01.331Z,61.53
2022-12-09T05:43:28.238Z,61.51
2022-12-09T05:45:55.051Z,61.48
2022-12-09T05:48:22.033Z,61.40
2022-12-09T05:51:02.054Z,61.42
2022-12-09T05:53:29.209Z,61.43
2022-12-09T05:55:56.492Z,61.44
2022-12-09T05:58:23.499Z,61.31
2022-12-09T06:00:50.875Z,61.19
2022-12-09T06:03:17.903Z,61.21
2022-12-09T06:05:45.092Z,61.29
2022-12-09T06:08:12.057Z,61.46
2022-12-09T06:10:39.853Z,61.24
2022-12-09T06:13:07.881Z,61.34
2022-12-09T06:15:35.322Z,61.32
2022-12-09T06:18:02.592Z,61.47
2022-12-09T06:20:29.888Z,61.43
2022-12-09T06:22:57.013Z,61.42
2022-12-09T06:25:23.951Z,61.48
2022-12-09T06:27:51.957Z,61.32
2022-12-09T06:30:18.653Z,61.38
2022-12-09T06:32:45.368Z,61.57
2022-12-09T06:35:12.355Z,61.54
2022-12-09T06:37:39.165Z,61.42
2022-12-09T06:40:06.677Z,61.44
2022-12-09T06:42:33.634Z,61.49
2022-12-09T06:45:00.583Z,61.59
2022-12-09T06:47:27.306Z,61.48
2022-12-09T06:49:54.110Z,61.43
2022-12-09T06:52:20.912Z,61.37
2022-12-09T06:54:47.606Z,61.36
2022-12-09T06:57:14.978Z,61.67
2022-12-09T06:59:41.606Z,61.37
2022-12-09T07:02:10.080Z,61.31
2022-12-09T07:04:37.365Z,61.44
2022-12-09T07:07:04.224Z,61.46
2022-12-09T07:09:31.021Z,61.30
2022-12-09T07:11:57.726Z,61.43
2022-12-09T07:14:24.635Z,61.40
2022-12-09T07:16:51.504Z,61.37
2022-12-09T07:19:21.200Z,61.23
2022-12-09T07:21:49.622Z,61.12
2022-12-09T07:24:18.509Z,61.11
2022-12-09T07:26:45.793Z,61.08
2022-12-09T07:29:12.810Z,60.92
2022-12-09T07:31:39.752Z,60.90
2022-12-09T07:34:06.834Z,60.82
2022-12-09T07:36:35.270Z,60.78
2022-12-09T07:39:06.142Z,60.74
2022-12-09T07:41:33.123Z,60.72
2022-12-09T07:43:59.855Z,60.90
2022-12-09T07:46:29.857Z,60.66
2022-12-09T07:48:58.372Z,60.80
2022-12-09T07:51:26.174Z,60.79
2022-12-09T07:53:53.813Z,60.79
2022-12-09T07:56:21.048Z,60.86
2022-12-09T07:58:48.777Z,60.90
2022-12-09T08:01:18.903Z,60.90
2022-12-09T08:03:46.654Z,60.88
2022-12-09T08:06:16.120Z,60.96
2022-12-09T08:08:44.080Z,60.88
2022-12-09T08:11:18.973Z,60.89
2022-12-09T08:13:45.790Z,60.75
2022-12-09T08:16:15.103Z,60.98
2022-12-09T08:18:43.011Z,60.91
2022-12-09T08:21:16.716Z,60.83
2022-12-09T08:23:44.096Z,60.98
2022-12-09T08:26:12.897Z,60.85
2022-12-09T08:28:40.244Z,60.93
2022-12-09T08:31:08.507Z,60.89
2022-12-09T08:33:36.527Z,60.95
2022-12-09T08:36:07.733Z,60.89
2022-12-09T08:38:34.605Z,60.88
2022-12-09T08:41:14.182Z,60.98
2022-12-09T08:43:42.824Z,60.91
2022-12-09T08:46:10.394Z,60.83
2022-12-09T08:48:39.020Z,60.83
2022-12-09T08:51:07.230Z,60.93
2022-12-09T08:53:34.308Z,60.75
2022-12-09T08:56:09.421Z,60.94
2022-12-09T08:58:36.217Z,60.19
2022-12-09T09:01:03.253Z,60.70
2022-12-09T09:03:30.454Z,60.64
2022-12-09T09:06:09.486Z,60.82
2022-12-09T09:08:39.222Z,60.75
2022-12-09T09:11:13.468Z,60.79
2022-12-09T09:13:42.218Z,60.57
2022-12-09T09:16:11.662Z,60.66
2022-12-09T09:18:39.489Z,60.40
2022-12-09T09:21:08.299Z,60.48
2022-12-09T09:23:35.348Z,60.46
2022-12-09T09:26:09.551Z,60.48
2022-12-09T09:28:36.153Z,60.37
2022-12-09T09:31:05.626Z,60.35
2022-12-09T09:33:33.257Z,60.44
2022-12-09T09:36:08.358Z,60.34
2022-12-09T09:38:36.792Z,60.52
2022-12-09T09:41:16.663Z,60.53
2022-12-09T09:43:43.967Z,60.43
2022-12-09T09:46:20.838Z,60.63
2022-12-09T09:48:48.702Z,60.44
2022-12-09T09:51:18.448Z,60.64
2022-12-09T09:53:49.337Z,60.36
2022-12-09T09:56:34.570Z,60.60
2022-12-09T09:59:24.562Z,60.54
2022-12-09T10:02:19.623Z,60.50
2022-12-09T10:05:02.035Z,60.58
2022-12-09T10:07:33.494Z,60.43
2022-12-09T10:10:26.531Z,60.70
2022-12-09T10:13:25.383Z,60.59
2022-12-09T10:16:12.223Z,60.51
2022-12-09T10:18:48.832Z,60.47
2022-12-09T10:21:18.149Z,60.17
2022-12-09T10:23:46.053Z,60.28
2022-12-09T10:26:26.583Z,60.35
2022-12-09T10:29:14.178Z,60.38
2022-12-09T10:31:41.243Z,60.30
2022-12-09T10:34:10.240Z,60.28
2022-12-09T10:36:38.758Z,60.31
2022-12-09T10:39:05.483Z,60.27
2022-12-09T10:42:05.608Z,60.27
2022-12-09T10:44:32.111Z,60.26
2022-12-09T10:47:19.280Z,60.35
2022-12-09T10:49:50.923Z,60.10
2022-12-09T10:52:22.969Z,60.26
2022-12-09T10:54:50.155Z,60.05
2022-12-09T10:57:17.067Z,60.03
2022-12-09T11:00:00.934Z,60.21
2022-12-09T11:02:29.406Z,60.21
2022-12-09T11:04:57.223Z,60.12
2022-12-09T11:07:27.062Z,60.10
2022-12-09T11:09:56.739Z,60.03
2022-12-09T11:12:27.321Z,59.92
2022-12-09T11:15:25.903Z,60.20
2022-12-09T11:18:44.315Z,59.96
2022-12-09T11:21:36.117Z,59.66
2022-12-09T11:24:04.831Z,59.54
2022-12-09T11:26:35.847Z,59.72
2022-12-09T11:29:06.784Z,59.75
2022-12-09T11:31:40.001Z,59.87
2022-12-09T11:34:26.285Z,59.73
2022-12-09T11:36:57.704Z,59.83
2022-12-09T11:39:28.467Z,59.63
2022-12-09T11:42:17.851Z,59.91
2022-12-09T11:44:56.480Z,59.83
2022-12-09T11:47:36.511Z,59.89
2022-12-09T11:50:20.419Z,59.80
2022-12-09T11:53:07.390Z,59.79
2022-12-09T11:55:36.523Z,59.67
2022-12-09T11:58:11.836Z,59.73
2022-12-09T12:00:51.020Z,59.61
2022-12-09T12:03:30.694Z,59.58
2022-12-09T12:06:00.755Z,59.25
2022-12-09T12:08:35.724Z,59.28
2022-12-09T12:11:13.551Z,59.13
2022-12-09T12:13:57.467Z,59.16
2022-12-09T12:16:39.780Z,59.03
2022-12-09T12:19:19.856Z,59.11
2022-12-09T12:22:15.133Z,58.86
2022-12-09T12:24:41.640Z,59.12
2022-12-09T12:27:26.631Z,59.06
2022-12-09T12:30:05.375Z,59.14
2022-12-09T12:32:38.214Z,58.97
2022-12-09T12:35:39.102Z,59.01
2022-12-09T12:38:08.771Z,58.93
2022-12-09T12:40:44.368Z,58.88
2022-12-09T12:43:32.212Z,59.00
2022-12-09T12:46:17.444Z,58.78
2022-12-09T12:49:21.708Z,58.89
2022-12-09T12:52:53.871Z,58.83
2022-12-09T12:55:46.612Z,58.75
2022-12-09T12:58:31.572Z,58.68
2022-12-09T13:01:08.557Z,58.66
2022-12-09T13:03:56.315Z,58.56
2022-12-09T13:06:35.020Z,58.70
2022-12-09T13:09:10.532Z,58.61
2022-12-09T13:11:55.443Z,58.46
2022-12-09T13:14:31.887Z,58.52
2022-12-09T13:17:01.748Z,58.39
2022-12-09T13:19:38.653Z,58.32
2022-12-09T13:22:06.701Z,58.46
2022-12-09T13:24:46.309Z,58.48
2022-12-09T13:27:27.328Z,58.35
2022-12-09T13:30:18.204Z,58.47
2022-12-09T13:33:17.009Z,58.39
2022-12-09T13:36:27.671Z,58.38
2022-12-09T13:38:54.945Z,58.59
2022-12-09T13:41:27.733Z,58.31
2022-12-09T13:43:58.382Z,58.34
2022-12-09T13:46:27.159Z,58.14
2022-12-09T13:48:54.831Z,57.96
2022-12-09T13:51:22.735Z,57.85
2022-12-09T13:53:58.372Z,57.62
2022-12-09T13:56:33.966Z,57.78
2022-12-09T13:59:29.946Z,57.74
2022-12-09T14:02:09.127Z,57.47
2022-12-09T14:04:43.709Z,57.60
2022-12-09T14:07:38.389Z,57.46
2022-12-09T14:10:05.991Z,57.48
2022-12-09T14:12:32.786Z,57.57
2022-12-09T14:15:06.104Z,57.75
2022-12-09T14:17:35.334Z,57.54
2022-12-09T14:20:23.385Z,57.31
2022-12-09T14:23:08.227Z,57.17
2022-12-09T14:25:34.721Z,57.03
2022-12-09T14:28:10.392Z,57.35
2022-12-09T14:31:04.762Z,57.03
2022-12-09T14:33:42.434Z,57.15
2022-12-09T14:36:30.432Z,57.43
2022-12-09T14:41:58.751Z,57.09
2022-12-09T14:44:39.520Z,56.87
2022-12-09T14:47:26.331Z,56.93
2022-12-09T14:49:54.328Z,57.01
2022-12-09T14:52:33.246Z,56.98
2022-12-09T14:55:04.514Z,57.01
2022-12-09T14:57:38.377Z,56.95
2022-12-09T15:00:06.939Z,57.08
2022-12-09T15:02:33.934Z,56.88
2022-12-09T15:05:02.483Z,56.94
2022-12-09T15:07:34.307Z,56.85
2022-12-09T15:10:02.474Z,56.86
2022-12-09T15:12:41.230Z,56.78
2022-12-09T15:15:10.751Z,56.70
2022-12-09T15:17:46.883Z,56.73
2022-12-09T15:20:40.850Z,56.76
2022-12-09T15:23:18.637Z,56.59
2022-12-09T15:26:00.271Z,56.80
2022-12-09T15:28:29.361Z,56.89
2022-12-09T15:31:00.374Z,56.77
2022-12-09T15:33:30.913Z,56.69
2022-12-09T15:36:36.643Z,56.67
2022-12-09T15:39:07.343Z,56.57
2022-12-09T15:41:56.902Z,56.63
2022-12-09T15:44:25.475Z,56.67
2022-12-09T15:46:55.529Z,56.74
2022-12-09T15:49:29.921Z,56.64
2022-12-09T15:51:56.683Z,56.67
2022-12-09T15:54:29.350Z,56.61
2022-12-09T15:56:58.948Z,56.78
2022-12-09T15:59:33.499Z,56.65
2022-12-09T16:02:01.276Z,56.71
2022-12-09T16:04:32.163Z,56.61
2022-12-09T16:07:06.116Z,56.61
2022-12-09T16:09:32.816Z,56.53
2022-12-09T16:11:59.956Z,56.53
2022-12-09T16:14:26.799Z,56.48
2022-12-09T16:17:03.612Z,56.36
2022-12-09T16:19:36.171Z,56.46
2022-12-09T16:22:19.837Z,56.43
2022-12-09T16:25:13.730Z,56.19
2022-12-09T16:27:39.584Z,56.19
2022-12-09T16:30:23.929Z,56.28
2022-12-09T16:32:53.116Z,56.26
2022-12-09T16:35:42.883Z,56.14
2022-12-09T16:38:09.428Z,56.40
2022-12-09T16:40:44.850Z,56.31
2022-12-09T16:43:20.430Z,56.30
2022-12-09T16:45:57.018Z,56.28
2022-12-09T16:48:25.192Z,56.20
2022-12-09T16:50:51.703Z,56.19
2022-12-09T16:53:21.778Z,56.23
2022-12-09T16:55:59.768Z,56.27
2022-12-09T16:58:28.683Z,56.24
2022-12-09T17:00:55.884Z,56.03
2022-12-09T17:03:42.880Z,56.26
2022-12-09T17:06:14.004Z,56.20
2022-12-09T17:08:40.542Z,56.13
2022-12-09T17:11:07.233Z,56.17
2022-12-09T17:13:34.165Z,56.13
2022-12-09T17:16:01.821Z,56.09
2022-12-09T17:18:29.294Z,56.16
2022-12-09T17:21:06.815Z,56.29
2022-12-09T17:23:39.430Z,56.32
2022-12-09T17:26:09.131Z,56.30
2022-12-09T17:28:36.713Z,56.38
2022-12-09T17:31:08.927Z,56.26
2022-12-09T17:33:35.569Z,56.32
2022-12-09T17:36:02.134Z,56.41
2022-12-09T17:38:29.537Z,56.33
2022-12-09T17:40:56.907Z,56.43
2022-12-09T17:43:23.476Z,56.46
2022-12-09T17:45:50.048Z,56.49
2022-12-09T17:48:16.724Z,56.39
2022-12-09T17:50:43.201Z,56.47
2022-12-09T17:53:09.738Z,56.56
2022-12-09T17:55:38.919Z,56.58
2022-12-09T17:58:05.703Z,56.42
2022-12-09T18:00:33.722Z,56.57
2022-12-09T18:03:00.440Z,56.54
2022-12-09T18:05:26.964Z,56.64
2022-12-09T18:07:53.553Z,56.58
2022-12-09T18:10:20.222Z,56.72
2022-12-09T18:12:46.725Z,56.70
2022-12-09T18:15:13.556Z,56.62
2022-12-09T18:17:40.994Z,56.64
2022-12-09T18:20:08.259Z,56.68
2022-12-09T18:22:34.992Z,56.58
2022-12-09T18:25:01.589Z,56.70
2022-12-09T18:27:28.087Z,56.56
2022-12-09T18:29:54.693Z,56.63
2022-12-09T18:32:21.294Z,56.58
2022-12-09T18:34:49.218Z,56.63
2022-12-09T18:37:15.975Z,56.64
2022-12-09T18:39:42.475Z,56.54
2022-12-09T18:42:09.120Z,56.60
2022-12-09T18:44:35.715Z,56.72
2022-12-09T18:47:02.235Z,56.78
2022-12-09T18:49:29.335Z,56.92
2022-12-09T18:51:55.952Z,56.98
2022-12-09T18:54:27.386Z,57.02
2022-12-09T18:56:55.515Z,57.04
2022-12-09T18:59:25.012Z,57.00
2022-12-09T19:01:52.750Z,56.83
2022-12-09T19:04:23.989Z,56.80
2022-12-09T19:06:53.092Z,56.71
2022-12-09T19:09:22.258Z,56.61
2022-12-09T19:11:50.160Z,56.38
2022-12-09T19:14:18.672Z,56.28
2022-12-09T19:16:46.407Z,56.31
2022-12-09T19:19:15.572Z,56.20
2022-12-09T19:21:43.014Z,56.07
2022-12-09T19:24:15.307Z,56.03
2022-12-09T19:26:42.856Z,55.96
2022-12-09T19:29:10.550Z,55.74
2022-12-09T19:31:43.542Z,55.90
2022-12-09T19:34:22.372Z,55.95
2022-12-09T19:36:51.204Z,55.69
2022-12-09T19:39:19.455Z,55.80
2022-12-09T19:41:47.671Z,55.75
2022-12-09T19:44:30.903Z,55.58
2022-12-09T19:47:04.057Z,55.65
2022-12-09T19:49:30.596Z,55.64
2022-12-09T19:51:58.229Z,55.63
2022-12-09T19:54:28.830Z,55.60
2022-12-09T19:56:56.394Z,55.67
2022-12-09T19:59:23.008Z,55.68
2022-12-09T20:01:49.691Z,55.71
2022-12-09T20:04:47.411Z,55.61
2022-12-09T20:07:08.087Z,55.72
2022-12-09T20:09:35.484Z,55.60
2022-12-09T20:12:01.955Z,55.80
2022-12-09T20:14:28.459Z,55.61
2022-12-09T20:16:55.036Z,55.75
2022-12-09T20:19:21.669Z,55.73
2022-12-09T20:21:48.869Z,55.72
2022-12-09T20:24:15.398Z,55.79
2022-12-09T20:26:42.015Z,55.71
2022-12-09T20:29:10.672Z,55.55
2022-12-09T20:31:38.572Z,55.65
2022-12-09T20:34:08.977Z,55.50
2022-12-09T20:36:37.132Z,55.60
2022-12-09T20:39:11.157Z,55.66
2022-12-09T20:41:38.318Z,55.70
2022-12-09T20:44:04.875Z,55.72
2022-12-09T20:46:33.331Z,55.59
2022-12-09T20:49:00.408Z,55.82
2022-12-09T20:51:30.424Z,55.74
2022-12-09T20:53:57.648Z,55.67
2022-12-09T20:56:26.459Z,55.69
2022-12-09T20:58:53.864Z,55.43
2022-12-09T21:01:29.536Z,55.71
2022-12-09T21:03:58.137Z,55.60
2022-12-09T21:06:29.882Z,55.60
2022-12-09T21:08:59.952Z,55.64
2022-12-09T21:11:26.839Z,55.52
2022-12-09T21:14:04.993Z,55.63
2022-12-09T21:16:34.565Z,55.65
2022-12-09T21:19:05.173Z,55.52
2022-12-09T21:21:34.884Z,55.60
2022-12-09T21:24:02.236Z,55.70
2022-12-09T21:26:29.491Z,55.53
2022-12-09T21:28:58.067Z,55.84
2022-12-09T21:31:27.370Z,55.58
2022-12-09T21:33:55.964Z,55.51
2022-12-09T21:36:26.191Z,55.60
2022-12-09T21:38:53.793Z,55.55
2022-12-09T21:41:23.494Z,55.59
2022-12-09T21:43:50.821Z,55.43
2022-12-09T21:46:22.955Z,55.48
2022-12-09T21:48:52.566Z,55.59
2022-12-09T21:51:21.235Z,55.53
2022-12-09T21:53:49.156Z,55.55
2022-12-09T21:56:24.147Z,55.67
2022-12-09T21:58:52.655Z,55.59
2022-12-09T22:01:23.558Z,55.60
2022-12-09T22:03:50.198Z,55.54
2022-12-09T22:06:17.529Z,55.55
2022-12-09T22:08:44.753Z,55.45
2022-12-09T22:11:17.549Z,55.55
2022-12-09T22:13:44.531Z,55.40
2022-12-09T22:16:19.903Z,55.51
2022-12-09T22:18:46.379Z,55.59
2022-12-09T22:21:26.326Z,55.52
2022-12-09T22:23:55.372Z,55.45
2022-12-09T22:26:22.861Z,55.56
2022-12-09T22:28:50.239Z,55.57
2022-12-09T22:31:23.316Z,55.62
2022-12-09T22:33:51.972Z,55.50
2022-12-09T22:36:19.492Z,55.61
2022-12-09T22:38:46.591Z,55.54
2022-12-09T22:41:16.352Z,55.57
2022-12-09T22:43:43.372Z,55.61
2022-12-09T22:46:13.707Z,55.48
2022-12-09T22:48:41.220Z,55.63
2022-12-09T22:51:12.065Z,55.74
2022-12-09T22:53:38.925Z,55.80
2022-12-09T22:56:06.342Z,55.90
2022-12-09T22:58:34.399Z,56.27
2022-12-09T23:01:00.946Z,56.11
2022-12-09T23:03:27.657Z,56.07
2022-12-09T23:05:54.492Z,56.19
2022-12-09T23:08:21.070Z,56.05
2022-12-09T23:10:47.737Z,56.00
2022-12-09T23:13:14.227Z,55.89
2022-12-09T23:15:40.823Z,55.92
2022-12-09T23:18:07.414Z,55.99
2022-12-09T23:20:33.963Z,55.68
2022-12-09T23:23:00.755Z,56.02
2022-12-09T23:25:27.241Z,55.92
2022-12-09T23:27:53.740Z,55.95
2022-12-09T23:30:20.265Z,55.81
2022-12-09T23:32:46.803Z,55.80
2022-12-09T23:35:13.412Z,55.69
2022-12-09T23:37:40.038Z,55.76
2022-12-09T23:40:07.520Z,55.69
2022-12-09T23:42:34.268Z,55.60
2022-12-09T23:45:00.752Z,55.55
2022-12-09T23:47:27.423Z,55.42
2022-12-09T23:49:54.630Z,55.31
2022-12-09T23:52:21.397Z,55.46
2022-12-09T23:54:47.960Z,55.31
2022-12-09T23:57:14.527Z,55.33
2022-12-09T23:59:41.118Z,55.31
